Map

Track Data

SID SEASON NUMBER BASIN SUBBASIN NAME ISO_TIME NATURE LAT LON WMO_WIND WMO_PRES WMO_AGENCY TRACK_TYPE DIST2LAND LANDFALL IFLAG USA_AGENCY USA_ATCF_ID USA_LAT USA_LON USA_RECORD USA_STATUS USA_WIND USA_PRES USA_SSHS USA_R34_NE USA_R34_SE USA_R34_SW USA_R34_NW USA_R50_NE USA_R50_SE USA_R50_SW USA_R50_NW USA_R64_NE USA_R64_SE USA_R64_SW USA_R64_NW USA_POCI USA_ROCI USA_RMW USA_EYE TOKYO_LAT TOKYO_LON TOKYO_GRADE TOKYO_WIND TOKYO_PRES TOKYO_R50_DIR TOKYO_R50_LONG TOKYO_R50_SHORT TOKYO_R30_DIR TOKYO_R30_LONG TOKYO_R30_SHORT TOKYO_LAND CMA_LAT CMA_LON CMA_CAT CMA_WIND CMA_PRES HKO_LAT HKO_LON HKO_CAT HKO_WIND HKO_PRES NEWDELHI_LAT NEWDELHI_LON NEWDELHI_GRADE NEWDELHI_WIND NEWDELHI_PRES NEWDELHI_CI NEWDELHI_DP NEWDELHI_POCI REUNION_LAT REUNION_LON REUNION_TYPE REUNION_WIND REUNION_PRES REUNION_TNUM REUNION_CI REUNION_RMW REUNION_R34_NE REUNION_R34_SE REUNION_R34_SW REUNION_R34_NW REUNION_R50_NE REUNION_R50_SE REUNION_R50_SW REUNION_R50_NW REUNION_R64_NE REUNION_R64_SE REUNION_R64_SW REUNION_R64_NW BOM_LAT BOM_LON BOM_TYPE BOM_WIND BOM_PRES BOM_TNUM BOM_CI BOM_RMW BOM_R34_NE BOM_R34_SE BOM_R34_SW BOM_R34_NW BOM_R50_NE BOM_R50_SE BOM_R50_SW BOM_R50_NW BOM_R64_NE BOM_R64_SE BOM_R64_SW BOM_R64_NW BOM_ROCI BOM_POCI BOM_EYE BOM_POS_METHOD BOM_PRES_METHOD NADI_LAT NADI_LON NADI_CAT NADI_WIND NADI_PRES WELLINGTON_LAT WELLINGTON_LON WELLINGTON_WIND WELLINGTON_PRES DS824_LAT DS824_LON DS824_STAGE DS824_WIND DS824_PRES TD9636_LAT TD9636_LON TD9636_STAGE TD9636_WIND TD9636_PRES TD9635_LAT TD9635_LON TD9635_WIND TD9635_PRES TD9635_ROCI NEUMANN_LAT NEUMANN_LON NEUMANN_CLASS NEUMANN_WIND NEUMANN_PRES MLC_LAT MLC_LON MLC_CLASS MLC_WIND MLC_PRES USA_GUST BOM_GUST BOM_GUST_PER REUNION_GUST REUNION_GUST_PER USA_SEAHGT USA_SEARAD_NE USA_SEARAD_SE USA_SEARAD_SW USA_SEARAD_NW STORM_SPEED STORM_DIR
1989208N20133 1989 67 WP MM NOT_NAMED 1989-07-27 00:00:00 NR 20.5000 132.500 main 1094 1094 O_________O___ jtwc_wp WP121989 20.5000 132.500 15 -1 20.5000 132.500 1 15 13 23
1989208N20133 1989 67 WP MM NOT_NAMED 1989-07-27 03:00:00 NR 21.1039 132.769 main 1125 1063 P_________P___ WP121989 21.0902 132.780 15 -1 21.1175 132.758 1 15 13 20
1989208N20133 1989 67 WP MM NOT_NAMED 1989-07-27 06:00:00 NR 21.7189 132.982 main 1063 1000 O_________P___ jtwc_wp WP121989 21.7000 133.000 15 -1 21.7378 132.964 1 15 13 13
1989208N20133 1989 67 WP MM NOT_NAMED 1989-07-27 09:00:00 NR 22.3532 133.080 main 989 921 P_________P___ WP121989 22.3423 133.097 15 -1 22.3641 133.064 1 15 13 0
1989208N20133 1989 67 WP MM NOT_NAMED 1989-07-27 12:00:00 NR 23.0000 133.000 main 921 849 O_________O___ jtwc_wp WP121989 23.0000 133.000 15 -1 23.0000 133.000 1 15 14 345
1989208N20133 1989 67 WP MM NOT_NAMED 1989-07-27 15:00:00 NR 23.6604 132.705 main 838 775 P_________P___ WP121989 23.6801 132.676 15 -1 23.6408 132.735 1 15 15 332
1989208N20133 1989 67 WP MM NOT_NAMED 1989-07-27 18:00:00 NR 24.2752 132.254 main 764 700 O_________P___ jtwc_wp WP121989 24.3000 132.200 15 -1 24.2504 132.308 1 15 14 323
1989208N20133 1989 67 WP MM NOT_NAMED 1989-07-27 21:00:00 NR 24.8048 131.745 main 699 649 P_________P___ WP121989 24.8249 131.715 15 -1 24.7846 131.776 1 15 13 314
1989208N20133 1989 67 WP MM NOT_NAMED 1989-07-28 00:00:00 NR 25.2000 131.200 main 649 625 O_________O___ jtwc_wp WP121989 25.2000 131.200 15 -1 25.2000 131.200 1 15 11 305
1989208N20133 1989 67 WP MM NOT_NAMED 1989-07-28 03:00:00 NR 25.4485 130.710 main 625 604 P_________P___ WP121989 25.4022 130.714 17 -1 25.4949 130.706 1 17 10 293
1989208N20133 1989 67 WP MM NOT_NAMED 1989-07-28 06:00:00 NR 25.5829 130.191 main 604 596 O_________P___ jtwc_wp WP121989 25.5000 130.200 20 -1 25.6658 130.182 1 20 10 283
1989208N20133 1989 67 WP MM NOT_NAMED 1989-07-28 09:00:00 NR 25.6830 129.627 main 601 601 P_________P___ WP121989 25.6371 129.638 22 -1 25.7289 129.617 1 22 11 276
1989208N20133 1989 67 WP MM NOT_NAMED 1989-07-28 12:00:00 NR 25.7000 129.000 main 614 614 O_________O___ jtwc_wp WP121989 25.7000 129.000 25 -1 25.7000 129.000 1 25 12 267
1989208N20133 1989 67 WP MM NOT_NAMED 1989-07-28 15:00:00 NR 25.6223 128.277 main 636 564 P_________P___ WP121989 25.6525 128.265 25 -1 25.5920 128.290 1 25 13 257
1989208N20133 1989 67 WP MM NOT_NAMED 1989-07-28 18:00:00 TS 25.4018 127.573 main 564 493 O_O_______P___ jtwc_wp WP121989 25.5000 127.500 25 -1 25.0000 128.000 1 29 995 25.4041 127.539 1 25 14 251
1989208N20133 1989 67 WP MM NOT_NAMED 1989-07-28 21:00:00 TS 25.1812 126.852 main 493 422 P_P_______P___ WP121989 25.2499 126.769 25 -1 25.0285 127.133 1 29 995 25.1889 126.793 1 25 13 253
1989208N20133 1989 67 WP MM NOT_NAMED 1989-07-29 00:00:00 TS 25.0000 126.155 main 422 362 O_O_______O___ jtwc_wp WP121989 25.0000 126.100 25 -1 25.0000 126.300 1 29 995 25.0000 126.100 1 25 12 256
1989208N20133 1989 67 WP MM NOT_NAMED 1989-07-29 03:00:00 TS 24.8767 125.525 main 352 303 P_P_______P___ WP121989 24.8621 125.520 27 -1 24.8798 125.540 1 33 994 24.8881 125.514 1 26 11 258
1989208N20133 1989 67 WP MM NOT_NAMED 1989-07-29 06:00:00 TS 24.7718 124.961 main 303 254 O_O_______P___ jtwc_wp WP121989 24.8000 125.000 30 -1 24.7000 124.900 2 38 993 24.8155 124.983 1 27 10 258
1989208N20133 1989 67 WP MM NOT_NAMED 1989-07-29 09:00:00 TS 24.6648 124.471 main 254 206 P_P_______P___ WP121989 24.7696 124.507 30 -1 24.4394 124.420 2 38 993 24.7853 124.485 1 28 9 261
1989208N20133 1989 67 WP MM NOT_NAMED 1989-07-29 12:00:00 TS 24.6333 124.000 main 206 154 O_O_______O___ jtwc_wp WP121989 24.8000 124.000 30 -1 24.3000 124.000 2 38 993 24.8000 124.000 1 30 9 276
1989208N20133 1989 67 WP MM NOT_NAMED 1989-07-29 15:00:00 TS 24.7531 123.462 main 152 101 P_P_______P___ WP121989 24.8853 123.385 30 -1 24.4973 123.523 2 38 993 24.8769 123.478 1 30 10 287
1989208N20133 1989 67 WP MM NOT_NAMED 1989-07-29 18:00:00 TS 24.9307 122.921 main 91 41 O_O_______P___ jtwc_wp WP121989 25.0000 122.800 30 -1 24.8000 123.000 2 38 994 24.9922 122.964 1 30 10 288
1989208N20133 1989 67 WP MM NOT_NAMED 1989-07-29 21:00:00 TS 25.0663 122.393 main 41 11 P_P_______P___ WP121989 25.0995 122.385 30 -1 24.9881 122.325 2 33 995 25.1114 122.468 1 30 9 285
1989208N20133 1989 67 WP MM NOT_NAMED 1989-07-30 00:00:00 TS 25.1667 121.933 main 22 0 O_O_______O___ jtwc_wp WP121989 25.2000 122.000 30 -1 25.1000 121.800 1 29 996 25.2000 122.000 1 30 8 282
1989208N20133 1989 67 WP MM NOT_NAMED 1989-07-30 03:00:00 TS 25.2284 121.578 main 0 0 P_P_______P___ WP121989 25.3377 121.485 30 -1 25.0921 121.717 1 29 996 25.2555 121.531 1 28 6 280
1989208N20133 1989 67 WP MM NOT_NAMED 1989-07-30 06:00:00 TS 25.2709 121.253 main 15 15 O_O_______P___ jtwc_wp WP121989 25.4000 121.000 30 -1 25.1000 121.800 1 29 996 25.2699 121.095 1 27 6 273
1989208N20133 1989 67 WP MM NOT_NAMED 1989-07-30 09:00:00 TS 25.2612 120.905 main 34 30 P_P_______P___ WP121989 25.3023 120.655 27 -1 25.2526 121.790 1 26 997 25.2244 120.712 1 26 7 259
1989208N20133 1989 67 WP MM NOT_NAMED 1989-07-30 12:00:00 TS 25.1444 120.544 main 51 51 O_O_______O___ jtwc_wp WP121989 25.1000 120.400 25 -1 25.5000 121.700 1 23 998 25.1000 120.400 1 25 8 240
1989208N20133 1989 67 WP MM NOT_NAMED 1989-07-30 15:00:00 NR 24.8826 120.171 main 60 60 P_________P___ WP121989 24.8799 120.170 22 -1 1 24.8852 120.171 1 22 7 222
1989208N20133 1989 67 WP MM NOT_NAMED 1989-07-30 18:00:00 NR 24.5986 120.005 main 64 52 O_________P___ jtwc_wp WP121989 24.6000 120.000 20 -1 24.5973 120.010 1 20 7 202
1989208N20133 1989 67 WP MM NOT_NAMED 1989-07-30 21:00:00 NR 24.2629 119.889 main 52 42 P_________P___ WP121989 24.2650 119.885 17 -1 24.2608 119.893 1 17 7 195
1989208N20133 1989 67 WP MM NOT_NAMED 1989-07-31 00:00:00 NR 23.9000 119.800 main 45 O_________O___ jtwc_wp WP121989 23.9000 119.800 15 -1 23.9000 119.800 1 15 7 192

Digital Typhoon Data and Search

About IBTrACS Database

This database is a web-friendly format of International Best Track Archive for Climate Stewardship (IBTrACS), a global best track data archive curated by NOAA dating back to 1842.

Updated: 2021-12-03